Time;durP1;ratioP1;P1;durP2;ratioP2;P2;SDS_P1;SDS_P2;PMS_P1;PMS_P2;Temp;Humidity;BMP_temperature;BMP_pressure;BME280_temperature;BME280_humidity;BME280_pressure;Samples;Min_cycle;Max_cycle;Signal;HPM_P1;HPM_P2
2024/03/10 00:00:20;;;;;;;16.10;7.20;;;;;;;1.44;56.52;100780.00;105250;1254;66333;-60
2024/03/10 00:02:49;;;;;;;20.70;8.40;;;;;;;1.50;56.46;100779.94;105299;1254;60537;-61
2024/03/10 00:05:17;;;;;;;17.10;6.80;;;;;;;1.57;56.21;100779.88;105096;1254;60527;-61
2024/03/10 00:07:46;;;;;;;17.80;9.40;;;;;;;1.64;56.00;100779.99;105164;1254;63669;-60
2024/03/10 00:10:18;;;;;;;17.90;7.00;;;;;;;1.71;56.03;100776.45;105333;1254;60521;-59
2024/03/10 00:12:50;;;;;;;20.40;6.10;;;;;;;1.76;55.82;100780.04;107783;1253;65966;-60
2024/03/10 00:15:21;;;;;;;15.50;6.80;;;;;;;1.75;55.64;100779.39;105286;1253;60450;-60
2024/03/10 00:17:49;;;;;;;18.30;9.20;;;;;;;1.71;55.75;100777.48;105470;1252;60431;-61
2024/03/10 00:20:19;;;;;;;17.50;8.10;;;;;;;1.66;55.84;100772.98;105269;1254;64902;-60
2024/03/10 00:22:48;;;;;;;16.20;8.70;;;;;;;1.61;55.94;100775.91;105441;1257;60368;-62
2024/03/10 00:25:19;;;;;;;22.70;11.10;;;;;;;1.58;56.02;100771.20;105217;1254;63769;-60
2024/03/10 00:27:49;;;;;;;23.20;11.60;;;;;;;1.55;55.95;100774.09;106068;1254;60543;-60
2024/03/10 00:30:17;;;;;;;14.90;8.20;;;;;;;1.47;55.93;100773.50;105862;1254;60473;-64
2024/03/10 00:32:45;;;;;;;21.80;8.70;;;;;;;1.41;56.00;100772.66;107825;1253;73858;-62
2024/03/10 00:35:13;;;;;;;17.50;8.80;;;;;;;1.36;56.14;100771.48;105184;1253;60481;-61
2024/03/10 00:37:41;;;;;;;15.60;7.70;;;;;;;1.29;56.25;100770.33;106257;1255;62473;-59
2024/03/10 00:40:09;;;;;;;20.50;10.20;;;;;;;1.24;56.31;100768.09;105306;1254;60571;-59
2024/03/10 00:42:36;;;;;;;19.80;9.40;;;;;;;1.20;56.34;100768.23;105307;1254;60552;-59
2024/03/10 00:45:06;;;;;;;23.00;10.20;;;;;;;1.15;56.33;100769.96;105513;1254;65478;-59
2024/03/10 00:47:36;;;;;;;16.40;9.30;;;;;;;1.09;56.36;100768.42;105580;1254;61341;-58
2024/03/10 00:50:06;;;;;;;17.30;9.10;;;;;;;1.03;56.41;100763.80;108767;1253;62648;-59
2024/03/10 00:52:35;;;;;;;20.50;10.30;;;;;;;0.99;56.43;100765.34;106473;1254;60620;-60
2024/03/10 00:55:04;;;;;;;16.10;9.20;;;;;;;0.96;56.54;100768.19;105421;1253;60389;-61
2024/03/10 00:57:32;;;;;;;26.00;10.90;;;;;;;0.95;56.62;100765.11;105739;1257;64949;-58
2024/03/10 01:00:00;;;;;;;32.60;13.30;;;;;;;0.93;56.71;100762.77;105834;1253;61527;-60
2024/03/10 01:02:28;;;;;;;23.70;10.00;;;;;;;0.91;56.57;100761.27;105841;1255;71546;-60
2024/03/10 01:04:55;;;;;;;21.80;11.10;;;;;;;0.86;56.48;100762.29;105155;1254;60529;-61
2024/03/10 01:07:23;;;;;;;23.40;10.60;;;;;;;0.83;56.53;100759.27;105918;1253;60469;-62
2024/03/10 01:09:51;;;;;;;24.00;12.30;;;;;;;0.82;56.56;100758.11;105269;1257;64915;-62
2024/03/10 01:12:18;;;;;;;24.20;11.20;;;;;;;0.80;56.75;100754.39;107666;1254;61346;-60
2024/03/10 01:14:46;;;;;;;22.70;10.10;;;;;;;0.77;56.79;100752.41;105246;1254;63793;-60
2024/03/10 01:17:13;;;;;;;19.70;10.60;;;;;;;0.76;56.89;100751.93;105812;1252;61483;-60
2024/03/10 01:19:44;;;;;;;18.80;8.10;;;;;;;0.74;56.98;100750.44;105172;1254;60556;-61
2024/03/10 01:22:16;;;;;;;16.50;6.70;;;;;;;0.71;56.95;100751.04;105449;1253;63620;-60
2024/03/10 01:24:44;;;;;;;17.00;6.30;;;;;;;0.72;56.91;100746.68;105319;1254;61399;-60
2024/03/10 01:27:12;;;;;;;16.80;8.10;;;;;;;0.80;56.76;100745.22;105424;1253;73247;-60
2024/03/10 01:29:39;;;;;;;17.60;6.70;;;;;;;0.88;56.82;100741.34;105240;1254;60940;-60
2024/03/10 01:32:08;;;;;;;17.50;7.30;;;;;;;0.96;56.71;100737.26;105206;1254;60415;-61
2024/03/10 01:34:36;;;;;;;18.80;8.00;;;;;;;1.04;56.52;100734.92;105590;1254;66641;-61
2024/03/10 01:37:04;;;;;;;16.90;6.80;;;;;;;1.11;56.40;100735.71;105676;1253;60476;-60
2024/03/10 01:39:31;;;;;;;15.20;7.00;;;;;;;1.18;56.10;100736.66;105602;1257;72690;-61
2024/03/10 01:41:59;;;;;;;24.80;7.50;;;;;;;1.21;55.89;100734.13;105179;1254;60456;-59
2024/03/10 01:44:28;;;;;;;31.90;10.90;;;;;;;1.20;55.85;100731.75;105246;1254;60562;-59
2024/03/10 01:46:56;;;;;;;26.50;8.40;;;;;;;1.16;55.80;100726.71;105734;1254;64922;-59
2024/03/10 01:49:24;;;;;;;22.30;9.50;;;;;;;1.08;55.83;100724.40;105724;1254;70754;-60
2024/03/10 01:51:51;;;;;;;19.30;9.00;;;;;;;1.02;55.91;100724.10;105755;1254;64299;-60
2024/03/10 01:54:19;;;;;;;26.10;8.60;;;;;;;0.97;55.97;100722.56;105228;1256;60392;-59
2024/03/10 01:56:49;;;;;;;27.50;10.60;;;;;;;0.89;55.90;100720.37;105252;1253;60550;-61
2024/03/10 01:59:17;;;;;;;23.70;11.40;;;;;;;0.84;55.87;100721.27;106252;1254;63705;-61
2024/03/10 02:01:46;;;;;;;28.90;11.90;;;;;;;0.76;55.82;100719.64;105371;1257;69103;-61
2024/03/10 02:04:17;;;;;;;22.50;9.60;;;;;;;0.66;55.81;100718.74;105105;1254;63749;-60
2024/03/10 02:06:45;;;;;;;18.30;8.80;;;;;;;0.58;56.10;100717.12;105352;1254;60473;-61
2024/03/10 02:09:12;;;;;;;26.90;11.30;;;;;;;0.54;56.42;100716.58;105300;1254;60387;-60
2024/03/10 02:11:40;;;;;;;27.90;10.60;;;;;;;0.50;56.56;100713.58;105271;1253;63643;-60
2024/03/10 02:14:08;;;;;;;19.00;8.90;;;;;;;0.47;56.63;100712.48;105222;1256;68842;-60
2024/03/10 02:16:36;;;;;;;25.20;12.40;;;;;;;0.41;56.48;100708.01;105225;1257;62671;-60
2024/03/10 02:19:04;;;;;;;27.00;14.10;;;;;;;0.33;56.38;100707.92;105418;1254;60441;-60
2024/03/10 02:21:32;;;;;;;27.10;12.00;;;;;;;0.25;56.50;100707.16;105271;1258;60376;-60
2024/03/10 02:24:19;;;;;;;30.00;16.50;;;;;;;0.18;56.55;100711.16;105625;1254;73858;-60
2024/03/10 02:26:47;;;;;;;45.40;17.80;;;;;;;0.12;56.64;100707.05;106819;1253;69649;-60
2024/03/10 02:29:15;;;;;;;26.80;13.30;;;;;;;0.09;56.84;100709.20;105199;1257;71628;-60
2024/03/10 02:48:29;;;;;;;28.30;12.60;;;;;;;0.02;57.51;100717.36;105147;1259;60412;-64
2024/03/10 02:50:56;;;;;;;26.20;13.30;;;;;;;0.02;57.71;100717.38;105585;1257;74193;-59
2024/03/10 02:53:24;;;;;;;20.40;8.20;;;;;;;0.03;57.76;100715.10;105235;1254;70291;-60
2024/03/10 02:55:53;;;;;;;17.30;6.90;;;;;;;0.09;57.78;100714.05;106741;1254;72586;-60
2024/03/10 02:58:21;;;;;;;19.10;7.30;;;;;;;0.19;57.67;100713.55;106659;1258;60543;-60
2024/03/10 03:00:49;;;;;;;20.00;10.10;;;;;;;0.30;57.58;100710.60;105247;1253;60415;-62
2024/03/10 03:03:17;;;;;;;19.70;9.30;;;;;;;0.39;57.40;100709.64;105369;1254;73844;-59
2024/03/10 03:05:45;;;;;;;22.30;9.30;;;;;;;0.47;57.27;100711.45;105284;1255;61373;-60
2024/03/10 03:08:13;;;;;;;24.10;9.20;;;;;;;0.54;57.21;100706.21;105472;1254;72644;-60
2024/03/10 03:10:41;;;;;;;24.50;10.70;;;;;;;0.60;57.07;100702.58;105310;1253;60815;-60
2024/03/10 03:13:08;;;;;;;19.90;8.20;;;;;;;0.66;56.96;100698.72;105414;1259;60427;-60
2024/03/10 03:15:36;;;;;;;23.20;12.40;;;;;;;0.68;56.86;100698.64;105528;1254;64896;-60
2024/03/10 03:18:04;;;;;;;26.40;13.30;;;;;;;0.65;56.62;100697.21;105107;1254;70512;-60
2024/03/10 03:20:32;;;;;;;26.20;13.10;;;;;;;0.62;56.49;100696.30;105097;1255;72606;-62
2024/03/10 03:23:02;;;;;;;30.50;14.60;;;;;;;0.58;56.45;100695.55;105585;1254;60536;-60
2024/03/10 03:25:30;;;;;;;27.90;11.40;;;;;;;0.53;56.29;100694.14;105689;1254;60447;-61
2024/03/10 03:27:58;;;;;;;28.40;12.90;;;;;;;0.48;56.15;100695.19;105814;1254;63633;-60
2024/03/10 03:30:26;;;;;;;26.50;12.80;;;;;;;0.41;56.03;100695.42;105292;1254;69897;-60
2024/03/10 03:32:54;;;;;;;33.30;13.10;;;;;;;0.33;56.01;100692.40;105288;1254;71757;-60
2024/03/10 03:35:22;;;;;;;24.40;10.20;;;;;;;0.26;56.15;100683.98;105804;1254;60535;-60
2024/03/10 03:37:50;;;;;;;23.90;11.90;;;;;;;0.22;56.40;100684.12;105891;1254;59304;-60
2024/03/10 03:40:19;;;;;;;26.50;13.40;;;;;;;0.19;56.57;100685.95;105074;1254;65845;-64
2024/03/10 03:42:47;;;;;;;28.00;15.10;;;;;;;0.16;56.66;100684.66;105426;1254;70309;-61
2024/03/10 03:45:16;;;;;;;27.10;12.00;;;;;;;0.13;56.73;100680.80;106063;1254;63645;-65
2024/03/10 03:47:44;;;;;;;29.70;13.70;;;;;;;0.09;56.84;100681.59;105303;1256;60508;-59
2024/03/10 03:50:12;;;;;;;34.80;15.30;;;;;;;0.07;56.82;100675.98;105339;1258;60425;-60
2024/03/10 03:52:40;;;;;;;27.10;13.00;;;;;;;0.01;56.70;100673.42;105174;1254;64935;-59
2024/03/10 03:55:10;;;;;;;31.10;11.80;;;;;;;-0.04;56.86;100671.66;105608;1254;61459;-59
2024/03/10 03:57:38;;;;;;;33.50;16.70;;;;;;;-0.08;56.98;100669.89;105453;1258;71383;-61
2024/03/10 04:00:11;;;;;;;28.50;15.10;;;;;;;-0.11;57.04;100671.72;105226;1254;60540;-60
2024/03/10 04:02:39;;;;;;;31.90;12.90;;;;;;;-0.16;57.16;100669.80;105323;1254;60976;-60
2024/03/10 04:05:08;;;;;;;27.50;15.40;;;;;;;-0.21;57.23;100669.42;105179;1254;73780;-61
2024/03/10 04:07:35;;;;;;;34.30;15.80;;;;;;;-0.26;57.21;100669.06;105452;1257;68939;-61
2024/03/10 04:10:05;;;;;;;32.60;16.50;;;;;;;-0.29;57.22;100670.88;105300;1254;71848;-60
2024/03/10 04:12:33;;;;;;;30.00;14.30;;;;;;;-0.33;57.32;100666.35;105149;1256;60476;-60
2024/03/10 04:15:01;;;;;;;27.00;11.70;;;;;;;-0.36;57.39;100666.45;105199;1257;60290;-62
2024/03/10 04:17:29;;;;;;;20.50;7.20;;;;;;;-0.33;57.30;100663.58;105823;1254;72542;-60
2024/03/10 04:19:56;;;;;;;18.90;8.00;;;;;;;-0.25;57.03;100661.61;105203;1258;69204;-62
2024/03/10 04:22:24;;;;;;;22.20;7.10;;;;;;;-0.18;57.05;100666.39;105264;1257;72428;-63
2024/03/10 04:24:52;;;;;;;22.90;10.00;;;;;;;-0.11;57.03;100668.60;105124;1259;60623;-65
2024/03/10 04:27:20;;;;;;;24.00;10.50;;;;;;;-0.02;57.27;100667.80;105298;1258;60305;-63
2024/03/10 04:29:47;;;;;;;18.50;7.60;;;;;;;0.06;57.04;100673.60;105254;1254;73760;-61
2024/03/10 04:32:15;;;;;;;25.50;10.30;;;;;;;0.14;56.91;100672.98;105305;1254;70475;-61
2024/03/10 04:34:42;;;;;;;21.10;11.10;;;;;;;0.19;57.07;100669.38;105338;1258;70472;-61
2024/03/10 04:37:12;;;;;;;24.60;11.00;;;;;;;0.25;57.02;100670.23;105333;1255;60559;-62
2024/03/10 04:39:39;;;;;;;22.40;12.00;;;;;;;0.25;57.00;100672.96;105194;1254;60633;-63
2024/03/10 04:42:08;;;;;;;29.90;14.80;;;;;;;0.25;56.96;100673.66;105263;1254;72583;-61
2024/03/10 04:44:36;;;;;;;24.50;11.00;;;;;;;0.25;56.84;100672.13;105527;1260;70301;-62
2024/03/10 04:47:04;;;;;;;21.90;10.80;;;;;;;0.22;56.84;100670.31;105734;1254;71476;-61
2024/03/10 04:49:33;;;;;;;23.80;11.30;;;;;;;0.21;56.74;100672.42;106588;1253;60428;-61
2024/03/10 04:52:01;;;;;;;29.10;12.60;;;;;;;0.17;56.76;100670.81;105440;1252;61227;-61
2024/03/10 04:54:29;;;;;;;25.00;11.80;;;;;;;0.14;56.76;100671.61;105160;1254;72615;-60
2024/03/10 04:56:56;;;;;;;22.60;10.90;;;;;;;0.10;56.83;100673.12;105323;1254;69526;-62
2024/03/10 04:59:24;;;;;;;24.70;12.50;;;;;;;0.07;56.86;100671.48;105210;1254;72902;-62
2024/03/10 05:01:55;;;;;;;27.50;13.30;;;;;;;0.06;56.99;100676.73;105312;1254;60530;-63
2024/03/10 05:04:23;;;;;;;35.90;11.80;;;;;;;0.06;57.16;100682.57;105903;1260;60779;-58
2024/03/10 05:06:50;;;;;;;26.70;12.00;;;;;;;0.06;57.34;100685.31;105191;1254;73091;-60
2024/03/10 05:09:18;;;;;;;22.50;11.20;;;;;;;0.07;57.56;100686.33;105071;1259;69947;-60
2024/03/10 05:11:46;;;;;;;19.20;9.60;;;;;;;0.09;57.82;100685.23;105350;1254;72800;-60
2024/03/10 05:14:13;;;;;;;25.80;11.20;;;;;;;0.10;57.93;100686.23;106018;1252;60424;-59
2024/03/10 05:16:43;;;;;;;19.70;10.40;;;;;;;0.11;58.06;100688.97;105290;1258;60358;-60
2024/03/10 05:19:11;;;;;;;19.20;10.20;;;;;;;0.13;58.09;100690.41;105224;1259;75263;-60
2024/03/10 05:21:38;;;;;;;24.40;11.50;;;;;;;0.17;58.19;100694.11;105376;1255;70438;-61
2024/03/10 05:24:07;;;;;;;15.60;7.20;;;;;;;0.28;58.15;100694.27;105612;1254;71079;-60
2024/03/10 05:26:35;;;;;;;17.10;6.50;;;;;;;0.44;58.11;100694.96;105637;1254;60571;-60
2024/03/10 05:29:02;;;;;;;15.00;6.80;;;;;;;0.57;58.08;100696.09;105334;1257;60354;-59
2024/03/10 05:31:33;;;;;;;15.90;7.70;;;;;;;0.73;58.17;100695.90;105175;1254;72568;-59
2024/03/10 05:34:03;;;;;;;16.50;7.10;;;;;;;0.90;58.26;100697.21;105760;1259;68961;-60
2024/03/10 05:36:33;;;;;;;19.80;8.00;;;;;;;1.13;58.31;100700.20;106707;1254;72652;-59
2024/03/10 05:39:01;;;;;;;16.40;6.70;;;;;;;1.37;58.22;100698.30;105609;1254;60539;-59
2024/03/10 05:41:29;;;;;;;18.50;7.70;;;;;;;1.57;58.13;100693.05;105232;1254;60561;-57
2024/03/10 05:43:57;;;;;;;19.60;8.50;;;;;;;1.71;58.03;100694.30;105922;1254;74551;-59
2024/03/10 05:46:24;;;;;;;21.50;9.40;;;;;;;1.81;57.98;100692.53;105152;1259;68705;-59
2024/03/10 05:48:55;;;;;;;18.40;8.70;;;;;;;1.88;57.90;100687.58;105846;1255;72804;-59
2024/03/10 05:51:23;;;;;;;19.90;9.50;;;;;;;1.91;57.71;100685.02;105694;1254;60570;-61
2024/03/10 05:53:51;;;;;;;16.30;9.10;;;;;;;1.96;57.57;100686.23;106710;1257;60351;-61
2024/03/10 05:56:19;;;;;;;22.50;10.40;;;;;;;1.98;57.40;100687.86;106166;1254;73816;-59
2024/03/10 05:58:47;;;;;;;22.50;10.40;;;;;;;2.00;57.34;100686.90;106239;1254;69395;-61
2024/03/10 06:01:15;;;;;;;20.40;9.70;;;;;;;2.03;57.21;100684.19;105320;1257;72689;-58
2024/03/10 06:03:43;;;;;;;19.60;9.70;;;;;;;2.06;57.14;100683.42;105171;1260;61734;-59
2024/03/10 06:06:11;;;;;;;23.50;9.40;;;;;;;2.09;57.16;100684.68;107078;1258;60414;-59
2024/03/10 06:08:39;;;;;;;21.00;10.10;;;;;;;2.11;56.96;100679.74;105132;1258;74267;-58
2024/03/10 06:11:07;;;;;;;20.30;9.10;;;;;;;2.15;57.10;100679.91;105184;1259;70314;-58
2024/03/10 06:13:34;;;;;;;24.10;9.90;;;;;;;2.21;57.04;100682.45;105298;1253;72446;-57
2024/03/10 06:16:02;;;;;;;24.40;10.80;;;;;;;2.27;57.03;100684.63;105254;1254;60606;-58
2024/03/10 06:25:22;;;;;;;19.10;8.90;;;;;;;2.33;56.95;100684.23;105602;1260;60433;-57
2024/03/10 06:26:58;;;;;;;17.00;7.80;;;;;;;2.55;56.81;100689.71;105102;1254;169846;-57
2024/03/10 06:31:25;;;;;;;13.90;6.80;;;;;;;2.58;57.39;100698.77;102237;1291;600406;-57
2024/03/10 06:33:53;;;;;;;16.30;7.00;;;;;;;3.05;56.46;100690.36;104816;1264;59353;-57
2024/03/10 06:36:22;;;;;;;18.30;7.90;;;;;;;3.28;56.16;100680.17;104296;1267;60252;-57
2024/03/10 06:38:49;;;;;;;16.80;6.60;;;;;;;3.48;56.09;100678.42;104372;1270;63366;-57
2024/03/10 06:41:17;;;;;;;14.70;6.70;;;;;;;3.65;55.90;100672.42;104334;1267;61390;-57
2024/03/10 06:43:45;;;;;;;18.60;8.60;;;;;;;3.79;55.69;100668.61;104454;1267;63737;-56
2024/03/10 06:46:13;;;;;;;17.30;9.00;;;;;;;3.94;55.54;100666.21;107761;1263;173667;-59
2024/03/10 06:48:41;;;;;;;16.70;8.40;;;;;;;4.07;55.29;100671.64;104770;1264;59280;-62
2024/03/10 06:51:10;;;;;;;20.40;9.00;;;;;;;4.19;55.01;100684.08;105550;1264;62074;-60
2024/03/10 06:53:38;;;;;;;17.80;8.30;;;;;;;4.31;54.71;100683.33;104453;1263;61318;-56
2024/03/10 06:56:06;;;;;;;20.20;10.20;;;;;;;4.40;54.43;100682.55;104725;1263;62600;-67
2024/03/10 06:58:34;;;;;;;17.00;9.70;;;;;;;4.49;54.13;100682.61;105304;1257;59758;-60
2024/03/10 07:01:07;;;;;;;20.80;7.80;;;;;;;4.59;53.79;100683.37;104789;1263;59561;-57
2024/03/10 07:03:35;;;;;;;21.40;8.90;;;;;;;4.68;53.21;100680.98;104975;1260;64077;-57
2024/03/10 07:06:06;;;;;;;16.60;8.00;;;;;;;4.79;53.06;100682.17;106008;1257;61495;-56
2024/03/10 07:08:34;;;;;;;16.30;7.40;;;;;;;4.93;52.58;100682.52;108910;1257;63023;-59
2024/03/10 07:11:01;;;;;;;21.20;9.20;;;;;;;5.07;52.37;100684.06;107896;1260;59607;-57
2024/03/10 07:13:29;;;;;;;20.10;7.80;;;;;;;5.20;51.93;100683.18;108965;1254;57755;-56
2024/03/10 07:15:57;;;;;;;19.90;8.40;;;;;;;5.34;50.77;100679.63;105518;1256;62857;-56
2024/03/10 07:18:25;;;;;;;14.00;7.10;;;;;;;5.49;50.27;100676.09;105047;1256;60146;-56
2024/03/10 07:20:53;;;;;;;16.40;7.80;;;;;;;5.62;49.57;100685.66;105792;1254;63804;-57
2024/03/10 07:23:21;;;;;;;16.30;7.50;;;;;;;5.72;49.26;100684.91;105814;1257;59675;-55
2024/03/10 07:25:50;;;;;;;17.90;8.00;;;;;;;5.82;49.00;100681.91;105833;1255;59678;-56
2024/03/10 07:28:17;;;;;;;19.90;9.50;;;;;;;5.93;48.55;100677.67;105026;1255;62893;-56
2024/03/10 07:30:45;;;;;;;14.60;7.10;;;;;;;6.02;48.24;100680.31;104887;1260;60191;-55
2024/03/10 07:33:12;;;;;;;17.50;8.20;;;;;;;6.11;47.89;100683.81;105059;1261;63774;-56
2024/03/10 07:35:40;;;;;;;17.60;8.60;;;;;;;6.20;47.57;100689.28;105020;1257;59688;-57
2024/03/10 07:38:08;;;;;;;17.60;8.20;;;;;;;6.28;47.23;100688.61;106005;1255;59756;-58
2024/03/10 07:40:35;;;;;;;17.00;7.80;;;;;;;6.36;46.98;100688.34;104981;1261;64161;-59
2024/03/10 07:43:04;;;;;;;12.40;6.50;;;;;;;6.45;46.91;100689.01;105027;1257;61800;-58
2024/03/10 07:45:35;;;;;;;18.60;8.80;;;;;;;6.57;46.72;100689.92;107730;1257;63797;-57
2024/03/10 07:48:05;;;;;;;18.60;9.00;;;;;;;6.69;46.28;100689.42;106869;1257;59702;-58
2024/03/10 07:50:35;;;;;;;16.80;7.20;;;;;;;6.78;46.09;100687.08;105395;1254;59682;-59
2024/03/10 07:53:03;;;;;;;24.80;17.50;;;;;;;6.89;45.85;100683.68;105228;1257;64214;-59
2024/03/10 07:55:31;;;;;;;16.10;7.80;;;;;;;6.99;45.68;100684.45;106954;1257;60420;-60
2024/03/10 07:57:59;;;;;;;14.00;6.90;;;;;;;7.11;45.49;100684.97;105064;1257;64838;-59
2024/03/10 08:00:26;;;;;;;19.90;8.20;;;;;;;7.24;45.22;100685.58;105474;1262;61407;-61
2024/03/10 08:02:54;;;;;;;24.70;16.40;;;;;;;7.36;44.80;100680.62;104940;1258;59554;-60
2024/03/10 08:05:22;;;;;;;17.30;9.40;;;;;;;7.46;44.80;100678.97;104870;1257;75100;-59
2024/03/10 08:07:50;;;;;;;13.70;7.50;;;;;;;7.52;44.76;100676.50;106566;1261;62450;-60
2024/03/10 08:10:18;;;;;;;15.90;7.70;;;;;;;7.59;44.98;100678.38;105526;1258;66405;-59
2024/03/10 08:12:49;;;;;;;15.50;6.60;;;;;;;7.66;44.57;100675.67;105692;1260;59647;-59
2024/03/10 08:15:17;;;;;;;22.60;14.90;;;;;;;7.74;44.39;100676.70;104899;1258;59676;-59
2024/03/10 08:17:45;;;;;;;15.20;7.20;;;;;;;7.81;43.85;100674.70;105239;1257;64056;-55
2024/03/10 08:20:14;;;;;;;15.30;8.90;;;;;;;7.85;43.37;100675.83;105001;1258;60256;-55
2024/03/10 08:22:43;;;;;;;24.30;16.30;;;;;;;7.90;43.64;100677.77;105290;1256;74896;-56
2024/03/10 08:25:12;;;;;;;16.10;7.40;;;;;;;7.96;43.88;100680.56;106156;1254;59936;-57
2024/03/10 08:27:40;;;;;;;16.70;8.10;;;;;;;7.99;43.88;100678.60;106254;1259;59850;-59
2024/03/10 08:30:09;;;;;;;23.40;16.90;;;;;;;8.03;43.64;100674.36;105514;1252;64700;-59
2024/03/10 08:32:37;;;;;;;16.30;8.10;;;;;;;8.07;43.68;100679.13;105498;1254;61644;-59
2024/03/10 08:35:09;;;;;;;25.90;18.40;;;;;;;8.13;43.99;100683.13;105694;1257;67258;-56
2024/03/10 08:37:44;;;;;;;21.10;8.90;;;;;;;8.17;43.96;100688.27;105346;1257;59696;-55
2024/03/10 08:40:15;;;;;;;19.80;8.60;;;;;;;8.18;43.71;100693.09;105281;1256;59621;-60
2024/03/10 08:42:43;;;;;;;29.30;20.30;;;;;;;8.18;43.83;100692.95;105284;1258;64117;-57
2024/03/10 08:45:11;;;;;;;21.80;10.50;;;;;;;8.17;43.67;100695.48;105425;1258;62270;-54
2024/03/10 08:47:40;;;;;;;20.30;10.90;;;;;;;8.17;43.54;100695.13;106371;1257;62505;-57
2024/03/10 08:50:09;;;;;;;29.80;20.80;;;;;;;8.16;43.77;100694.64;105550;1252;59649;-58
2024/03/10 08:52:38;;;;;;;18.20;9.50;;;;;;;8.18;43.54;100696.26;106364;1254;59795;-56
2024/03/10 08:55:07;;;;;;;20.10;10.20;;;;;;;8.22;43.43;100698.14;105351;1257;75184;-55
2024/03/10 08:57:38;;;;;;;31.20;20.90;;;;;;;8.26;42.86;100695.73;105546;1259;60413;-53
2024/03/10 09:00:06;;;;;;;17.70;9.30;;;;;;;8.32;42.40;100698.64;105393;1254;63737;-53
2024/03/10 09:02:33;;;;;;;30.20;19.90;;;;;;;8.40;42.30;100702.17;106271;1254;59815;-53
2024/03/10 09:05:02;;;;;;;25.30;9.50;;;;;;;8.49;42.08;100703.01;105114;1259;59658;-51
2024/03/10 09:07:31;;;;;;;20.90;10.00;;;;;;;8.57;41.66;100699.16;105316;1251;72740;-53
2024/03/10 09:09:58;;;;;;;30.10;19.00;;;;;;;8.62;41.25;100698.17;105108;1257;60088;-52
2024/03/10 09:12:29;;;;;;;21.90;8.70;;;;;;;8.63;40.98;100704.36;105115;1257;62469;-57
2024/03/10 09:14:59;;;;;;;18.80;7.80;;;;;;;8.65;40.98;100707.72;105007;1251;61938;-51
2024/03/10 09:17:29;;;;;;;24.20;17.40;;;;;;;8.69;41.05;100714.44;105195;1259;59597;-57
2024/03/10 09:19:58;;;;;;;16.70;9.10;;;;;;;8.73;41.08;100713.52;106674;1257;66097;-55
2024/03/10 09:22:26;;;;;;;28.40;19.30;;;;;;;8.78;41.02;100711.05;105690;1255;61454;-55
2024/03/10 09:24:54;;;;;;;18.30;9.30;;;;;;;8.81;40.98;100711.70;105230;1254;66931;-56
2024/03/10 09:27:22;;;;;;;23.90;17.00;;;;;;;8.88;41.01;100714.02;105994;1256;59749;-56
2024/03/10 09:29:51;;;;;;;15.30;8.50;;;;;;;8.90;40.73;100711.80;105815;1254;60399;-55
2024/03/10 09:32:22;;;;;;;20.80;14.80;;;;;;;8.90;40.27;100710.95;107035;1251;64595;-57
2024/03/10 09:34:51;;;;;;;12.60;7.60;;;;;;;8.93;40.28;100709.49;105889;1251;61975;-56
2024/03/10 09:37:19;;;;;;;23.40;14.40;;;;;;;8.95;40.36;100709.95;105901;1254;62660;-56
2024/03/10 09:39:51;;;;;;;16.90;6.50;;;;;;;8.96;40.22;100707.03;105853;1257;59845;-56
2024/03/10 09:42:19;;;;;;;15.00;6.60;;;;;;;8.97;40.25;100708.19;107577;1258;60624;-57
2024/03/10 09:44:47;;;;;;;21.40;13.50;;;;;;;8.99;40.23;100711.05;105090;1259;64487;-65
2024/03/10 09:47:15;;;;;;;13.50;6.80;;;;;;;9.02;40.36;100712.45;105123;1259;70695;-54
2024/03/10 09:49:43;;;;;;;10.90;5.90;;;;;;;9.05;40.39;100712.19;109117;1251;62692;-55
2024/03/10 09:52:11;;;;;;;23.30;15.10;;;;;;;9.10;40.47;100711.84;104979;1251;59637;-59
2024/03/10 09:54:39;;;;;;;14.00;6.80;;;;;;;9.17;40.62;100713.32;104738;1258;60530;-57
2024/03/10 09:57:08;;;;;;;22.10;15.50;;;;;;;9.23;40.17;100710.98;105177;1259;62978;-58
2024/03/10 09:59:43;;;;;;;18.40;8.30;;;;;;;9.27;39.78;100711.77;104889;1258;60602;-54
2024/03/10 10:02:29;;;;;;;13.50;6.90;;;;;;;9.32;39.80;100711.91;104673;1251;64263;-56
2024/03/10 10:05:02;;;;;;;13.70;5.10;;;;;;;9.38;39.79;100710.42;104655;1254;60069;-60
2024/03/10 10:07:31;;;;;;;19.50;12.50;;;;;;;9.45;39.56;100710.48;104945;1254;59685;-58
2024/03/10 10:10:00;;;;;;;21.20;12.30;;;;;;;9.52;39.25;100710.55;106056;1260;64175;-58
2024/03/10 10:12:28;;;;;;;14.40;6.70;;;;;;;9.57;38.88;100709.36;105516;1257;73092;-57
2024/03/10 10:14:56;;;;;;;19.60;12.60;;;;;;;9.58;38.91;100705.35;107265;1256;74916;-58
2024/03/10 10:17:25;;;;;;;11.40;5.40;;;;;;;9.61;39.02;100706.92;105016;1251;59761;-56
2024/03/10 10:19:55;;;;;;;14.90;10.40;;;;;;;9.64;38.74;100702.67;105254;1256;59254;-56
2024/03/10 10:22:23;;;;;;;14.10;10.40;;;;;;;9.69;38.75;100700.75;106952;1251;71406;-57
2024/03/10 10:25:04;;;;;;;11.00;5.00;;;;;;;9.74;38.93;100698.11;105844;1251;61467;-57
2024/03/10 10:27:49;;;;;;;19.20;10.60;;;;;;;9.78;38.58;100699.58;105211;1259;65092;-57
2024/03/10 10:30:28;;;;;;;13.30;5.20;;;;;;;9.83;38.72;100698.88;105264;1254;61090;-56
2024/03/10 10:33:06;;;;;;;17.90;10.80;;;;;;;9.85;38.69;100694.49;106706;1257;61912;-57
2024/03/10 10:35:39;;;;;;;9.60;5.20;;;;;;;9.88;38.57;100697.85;106357;1258;64569;-57
2024/03/10 10:38:13;;;;;;;16.50;10.40;;;;;;;9.87;38.34;100695.98;107869;1256;61194;-56
2024/03/10 10:40:47;;;;;;;10.50;4.50;;;;;;;9.90;38.45;100698.02;105270;1257;62532;-56
2024/03/10 10:43:16;;;;;;;18.50;10.50;;;;;;;9.92;38.32;100698.98;105240;1254;60799;-57
2024/03/10 10:45:44;;;;;;;18.50;10.50;;;;;;;9.94;38.06;100696.67;105213;1254;60447;-55
2024/03/10 10:48:12;;;;;;;9.70;5.00;;;;;;;9.96;38.14;100697.79;105223;1259;67077;-55
2024/03/10 10:50:43;;;;;;;18.10;11.00;;;;;;;9.99;38.03;100696.67;105333;1259;72360;-54
2024/03/10 10:53:12;;;;;;;11.20;5.30;;;;;;;10.03;37.83;100692.54;105383;1254;75148;-55
2024/03/10 10:55:41;;;;;;;16.10;10.80;;;;;;;10.03;37.93;100693.58;105431;1259;60451;-55
2024/03/10 10:58:15;;;;;;;16.40;10.10;;;;;;;10.07;37.95;100690.52;105418;1256;61092;-56
2024/03/10 11:00:54;;;;;;;9.90;4.60;;;;;;;10.09;37.72;100690.91;105405;1254;65569;-57
2024/03/10 11:03:24;;;;;;;19.20;11.20;;;;;;;10.08;37.88;100693.92;106112;1258;60513;-56
2024/03/10 11:06:02;;;;;;;10.50;5.20;;;;;;;10.11;37.87;100694.08;105911;1258;62421;-57
2024/03/10 11:08:39;;;;;;;15.70;10.20;;;;;;;10.19;37.84;100693.26;106480;1253;61447;-57
2024/03/10 11:11:08;;;;;;;18.10;11.00;;;;;;;10.26;37.55;100684.77;105415;1260;62604;-57
2024/03/10 11:13:40;;;;;;;13.30;6.70;;;;;;;10.26;37.40;100682.31;105629;1257;72546;-58
2024/03/10 11:16:21;;;;;;;14.90;10.70;;;;;;;10.26;37.38;100683.14;107194;1256;62517;-56
2024/03/10 11:18:49;;;;;;;10.90;5.00;;;;;;;10.30;37.44;100683.74;105171;1256;63813;-55
2024/03/10 11:21:17;;;;;;;19.50;11.00;;;;;;;10.34;37.36;100683.42;105417;1255;60453;-56
2024/03/10 11:23:47;;;;;;;17.40;11.50;;;;;;;10.40;37.24;100683.86;106172;1252;62024;-56
2024/03/10 11:26:20;;;;;;;15.10;10.40;;;;;;;10.39;36.62;100677.84;106071;1251;74772;-54
2024/03/10 11:28:56;;;;;;;15.60;4.60;;;;;;;10.41;36.73;100684.14;105432;1251;60374;-58
2024/03/10 11:31:27;;;;;;;19.00;11.10;;;;;;;10.44;36.56;100681.69;105690;1259;63777;-57
2024/03/10 11:33:58;;;;;;;14.80;10.50;;;;;;;10.47;36.34;100679.86;105897;1265;60559;-56
2024/03/10 11:36:36;;;;;;;11.20;5.80;;;;;;;10.52;36.44;100681.80;105642;1254;60482;-53
2024/03/10 11:39:07;;;;;;;15.90;10.50;;;;;;;10.53;36.63;100682.25;105567;1259;76074;-55
2024/03/10 11:41:38;;;;;;;12.10;5.80;;;;;;;10.56;36.64;100682.19;105337;1254;60866;-57
2024/03/10 11:44:06;;;;;;;16.30;10.30;;;;;;;10.59;36.30;100679.33;105154;1253;65759;-54